Time;durP1;ratioP1;P1;durP2;ratioP2;P2;SDS_P1;SDS_P2;PMS_P1;PMS_P2;Temp;Humidity;BMP_temperature;BMP_pressure;BME280_temperature;BME280_humidity;BME280_pressure;Samples;Min_cycle;Max_cycle;Signal;HPM_P1;HPM_P2
2022/06/28 00:02:37;;;;;;;0.40;0.25;;;18.60;61.80;20.80;94362.00;;;;10483158;28;45911;-64
2022/06/28 00:07:57;;;;;;;1.20;0.20;;;18.60;61.70;20.80;94358.00;;;;10482603;28;45543;-65
2022/06/28 00:13:18;;;;;;;0.95;0.10;;;18.70;61.80;20.80;94364.00;;;;10482633;28;45196;-65
2022/06/28 00:18:41;;;;;;;0.50;0.10;;;18.60;61.70;20.80;94378.00;;;;10481943;28;45221;-65
2022/06/28 00:24:01;;;;;;;0.52;0.15;;;18.60;61.70;20.80;94367.00;;;;10482068;28;45193;-65
2022/06/28 00:29:22;;;;;;;0.50;0.20;;;18.60;61.70;20.80;94367.00;;;;10481763;28;45722;-65
2022/06/28 00:34:44;;;;;;;0.75;0.10;;;18.60;61.70;20.80;94363.00;;;;10481919;28;45189;-66
2022/06/28 00:40:06;;;;;;;0.30;0.10;;;18.60;61.70;20.80;94356.00;;;;10481606;28;45181;-65
2022/06/28 00:45:27;;;;;;;0.28;0.10;;;18.60;61.80;20.70;94382.00;;;;10481335;28;45111;-66
2022/06/28 00:50:49;;;;;;;0.10;0.10;;;18.60;61.70;20.80;94396.00;;;;10481393;28;45108;-65
2022/06/28 00:56:09;;;;;;;0.30;0.10;;;18.60;61.70;20.70;94407.00;;;;10480695;28;45784;-65
2022/06/28 01:01:31;;;;;;;0.40;0.10;;;18.60;61.80;20.70;94381.00;;;;10476478;28;45415;-65
2022/06/28 01:06:54;;;;;;;0.43;0.10;;;18.60;61.70;20.70;94394.00;;;;10477841;28;45732;-66
2022/06/28 01:12:15;;;;;;;0.20;0.15;;;18.60;61.70;20.70;94372.00;;;;10480106;28;45155;-65
2022/06/28 01:17:35;;;;;;;0.10;0.10;;;18.60;61.70;20.70;94358.00;;;;10480019;28;45248;-64
2022/06/28 01:22:57;;;;;;;0.40;0.10;;;18.60;61.70;20.70;94349.00;;;;10480081;28;45356;-65
2022/06/28 01:28:18;;;;;;;0.22;0.10;;;18.50;61.60;20.70;94369.00;;;;10479580;28;46024;-65
2022/06/28 01:33:40;;;;;;;0.05;0.05;;;18.50;61.60;20.70;94364.00;;;;10479648;28;45750;-65
2022/06/28 01:39:02;;;;;;;0.43;0.20;;;18.60;61.70;20.70;94367.00;;;;10479113;28;45126;-65
2022/06/28 01:44:23;;;;;;;0.20;0.10;;;18.50;61.70;20.70;94375.00;;;;10479599;28;45270;-64
2022/06/28 01:49:44;;;;;;;0.15;0.15;;;18.60;61.70;20.70;94370.00;;;;10478998;28;45122;-65
2022/06/28 01:55:07;;;;;;;0.17;0.10;;;18.60;61.70;20.70;94353.00;;;;10479055;28;45735;-65
2022/06/28 02:00:29;;;;;;;0.13;0.10;;;18.50;61.50;20.70;94363.00;;;;10478885;28;45139;-65
2022/06/28 02:05:49;;;;;;;0.00;0.00;;;18.50;61.50;20.70;94360.00;;;;10478804;28;45334;-65
2022/06/28 02:11:11;;;;;;;0.22;0.10;;;18.60;61.70;20.70;94366.00;;;;10478817;28;45120;-65
2022/06/28 02:16:31;;;;;;;0.20;0.20;;;18.50;61.60;20.70;94375.00;;;;10478150;28;45176;-66
2022/06/28 02:21:52;;;;;;;0.30;0.10;;;18.50;61.50;20.70;94371.00;;;;10478332;28;45151;-65
2022/06/28 02:27:14;;;;;;;0.10;0.10;;;18.50;61.50;20.70;94368.00;;;;10478055;28;45248;-65
2022/06/28 02:32:35;;;;;;;0.10;0.10;;;18.50;61.60;20.70;94369.00;;;;10478619;28;45160;-65
2022/06/28 02:43:35;;;;;;;0.10;0.10;;;18.50;61.50;20.70;94371.00;;;;10477884;28;45239;-64
2022/06/28 02:48:55;;;;;;;0.50;0.10;;;18.50;61.50;20.70;94351.00;;;;10483275;28;45235;-65
2022/06/28 02:54:16;;;;;;;0.50;0.10;;;18.50;61.50;20.70;94355.00;;;;10485214;28;45199;-64
2022/06/28 02:59:38;;;;;;;0.10;0.10;;;18.50;61.50;20.70;94362.00;;;;10484721;28;45796;-65
2022/06/28 03:04:58;;;;;;;0.10;0.10;;;18.50;61.50;20.70;94340.00;;;;10484871;28;45226;-64
2022/06/28 03:10:19;;;;;;;0.10;0.10;;;18.50;61.50;20.70;94354.00;;;;10484446;28;45154;-64
2022/06/28 03:15:41;;;;;;;0.40;0.20;;;18.50;61.40;20.70;94361.00;;;;10484438;28;45269;-65
2022/06/28 03:21:03;;;;;;;0.25;0.10;;;18.50;61.50;20.60;94364.00;;;;10484465;28;45288;-65
2022/06/28 03:26:24;;;;;;;0.10;0.00;;;18.50;61.50;20.60;94366.00;;;;10483894;28;45176;-66
2022/06/28 03:31:46;;;;;;;0.43;0.10;;;18.50;61.50;20.70;94368.00;;;;10484408;28;45380;-64
2022/06/28 03:37:07;;;;;;;0.22;0.10;;;18.50;61.40;20.60;94369.00;;;;10482867;28;45138;-65
2022/06/28 03:42:27;;;;;;;0.15;0.10;;;18.50;61.50;20.60;94339.00;;;;10483733;28;45234;-65
2022/06/28 03:47:49;;;;;;;0.32;0.10;;;18.50;61.50;20.60;94347.00;;;;10483539;28;45407;-64
2022/06/28 03:53:10;;;;;;;0.00;0.00;;;18.40;61.40;20.60;94352.00;;;;10483356;28;45172;-64
2022/06/28 03:58:31;;;;;;;0.30;0.10;;;18.50;61.40;20.60;94355.00;;;;10481970;28;45105;-65
2022/06/28 04:03:54;;;;;;;0.28;0.10;;;18.50;61.40;20.60;94380.00;;;;10483017;28;45484;-65
2022/06/28 04:09:16;;;;;;;0.38;0.10;;;18.50;61.40;20.60;94421.00;;;;10482484;28;45327;-65
2022/06/28 04:14:37;;;;;;;0.03;0.03;;;18.40;61.40;20.70;94452.00;;;;10482552;28;45135;-61
2022/06/28 04:19:59;;;;;;;0.13;0.10;;;18.50;61.40;20.70;94482.00;;;;10482267;28;45875;-63
2022/06/28 04:25:19;;;;;;;0.10;0.10;;;18.60;61.60;20.70;94499.00;;;;10481949;28;45103;-61
2022/06/28 04:30:40;;;;;;;1.05;0.22;;;18.50;61.60;20.70;94492.00;;;;10482497;28;45404;-63
2022/06/28 04:36:02;;;;;;;0.17;0.10;;;18.50;61.70;20.70;94411.00;;;;10480793;28;45223;-62
2022/06/28 04:41:24;;;;;;;0.20;0.10;;;18.50;61.50;20.70;94305.00;;;;10481698;28;45241;-63
2022/06/28 04:46:44;;;;;;;0.22;0.10;;;18.50;61.60;20.70;94217.00;;;;10480679;28;45171;-61
2022/06/28 04:52:07;;;;;;;0.05;0.05;;;18.50;61.50;20.70;94264.00;;;;10481092;28;45219;-64
2022/06/28 04:57:28;;;;;;;0.10;0.08;;;18.50;61.50;20.60;94246.00;;;;10480408;28;45184;-62
2022/06/28 05:02:48;;;;;;;0.38;0.10;;;18.50;61.50;20.60;94241.00;;;;10481010;28;45812;-62
2022/06/28 05:08:10;;;;;;;0.32;0.10;;;18.50;61.50;20.70;94296.00;;;;10480492;28;45933;-62
2022/06/28 05:13:31;;;;;;;0.10;0.10;;;18.50;61.50;20.60;94298.00;;;;10479983;28;45201;-62
2022/06/28 05:18:51;;;;;;;0.40;0.10;;;18.50;61.50;20.60;94320.00;;;;10480252;28;46087;-62
2022/06/28 05:24:13;;;;;;;0.68;0.10;;;18.50;61.50;20.60;94325.00;;;;10480725;28;45155;-63
2022/06/28 05:29:34;;;;;;;0.55;0.28;;;18.50;61.50;20.70;94294.00;;;;10480367;28;45842;-63
2022/06/28 05:34:54;;;;;;;1.10;0.10;;;18.50;61.80;20.70;94290.00;;;;10480277;28;45700;-60
2022/06/28 05:40:16;;;;;;;0.57;0.20;;;18.50;61.70;20.60;94277.00;;;;10534600;22;45897;-62
2022/06/28 05:45:37;;;;;;;0.17;0.10;;;18.50;61.70;20.60;94282.00;;;;10519658;28;45279;-63
2022/06/28 05:50:57;;;;;;;2.17;0.15;;;18.50;62.60;20.60;94268.00;;;;10521054;28;45123;-63
2022/06/28 05:56:19;;;;;;;2.05;0.30;;;18.50;61.80;20.60;94294.00;;;;10520173;28;45773;-63
2022/06/28 06:01:39;;;;;;;0.75;0.30;;;18.50;61.70;20.60;94295.00;;;;10520652;28;45703;-63
2022/06/28 06:07:00;;;;;;;0.57;0.30;;;18.50;61.70;20.60;94288.00;;;;10520398;28;45195;-64
2022/06/28 06:12:22;;;;;;;0.45;0.30;;;18.50;61.70;20.60;94290.00;;;;10520148;28;45145;-63
2022/06/28 06:17:42;;;;;;;0.63;0.20;;;18.50;61.60;20.60;94282.00;;;;10519211;28;45231;-63
2022/06/28 06:23:03;;;;;;;0.80;0.30;;;18.40;61.50;20.60;94279.00;;;;10519540;28;45129;-62
2022/06/28 06:28:25;;;;;;;2.00;0.10;;;18.50;61.50;20.60;94270.00;;;;10520119;28;45460;-64
2022/06/28 06:33:46;;;;;;;0.52;0.20;;;18.40;61.50;20.60;94268.00;;;;10519924;27;46282;-63
2022/06/28 06:39:07;;;;;;;0.80;0.30;;;18.50;61.50;20.60;94265.00;;;;10518347;28;45145;-63
2022/06/28 06:44:29;;;;;;;0.75;0.25;;;18.40;61.40;20.60;94252.00;;;;10519285;28;45676;-63
2022/06/28 06:49:50;;;;;;;0.50;0.25;;;18.40;61.50;20.60;94255.00;;;;10517131;28;45302;-64
2022/06/28 06:55:11;;;;;;;0.20;0.20;;;18.40;61.50;20.60;94260.00;;;;10518874;28;45146;-64
2022/06/28 07:00:33;;;;;;;1.92;0.30;;;18.40;61.50;20.60;94262.00;;;;10518774;28;45234;-63
2022/06/28 07:05:54;;;;;;;0.55;0.25;;;18.40;61.50;20.60;94272.00;;;;10518922;28;45230;-63
2022/06/28 07:11:14;;;;;;;0.55;0.10;;;18.40;61.50;20.60;94280.00;;;;10518898;28;45142;-62
2022/06/28 07:16:36;;;;;;;0.60;0.30;;;18.40;61.40;20.60;94283.00;;;;10518385;28;45123;-64
2022/06/28 07:21:57;;;;;;;0.55;0.20;;;18.40;61.50;20.60;94275.00;;;;10518763;28;45835;-62
2022/06/28 07:27:17;;;;;;;0.20;0.20;;;18.40;61.40;20.60;94249.00;;;;10518111;28;45384;-62
2022/06/28 07:32:40;;;;;;;0.15;0.10;;;18.40;61.50;20.60;94261.00;;;;10519483;27;45197;-63
2022/06/28 07:38:00;;;;;;;0.20;0.20;;;18.40;61.40;20.60;94218.00;;;;10524440;28;45124;-63
2022/06/28 07:43:21;;;;;;;0.00;0.00;;;18.40;61.40;20.50;94166.00;;;;10525897;28;45849;-63
2022/06/28 07:48:42;;;;;;;0.22;0.10;;;18.40;61.40;20.60;94196.00;;;;10524915;28;45153;-63
2022/06/28 07:54:04;;;;;;;0.30;0.20;;;18.40;61.40;20.60;94218.00;;;;10524796;28;45721;-63
2022/06/28 07:59:25;;;;;;;0.77;0.13;;;18.40;61.40;20.60;94217.00;;;;10524161;28;45219;-63
2022/06/28 08:04:47;;;;;;;0.40;0.20;;;18.40;61.40;20.60;94200.00;;;;10524196;28;45190;-63
2022/06/28 08:10:09;;;;;;;0.00;0.00;;;18.40;61.40;20.60;94201.00;;;;10523854;28;45127;-63
2022/06/28 08:15:30;;;;;;;0.15;0.10;;;18.40;61.40;20.60;94194.00;;;;10523875;28;45712;-63
2022/06/28 08:20:53;;;;;;;0.25;0.20;;;18.40;61.40;20.60;94194.00;;;;10524142;28;45228;-63
2022/06/28 08:26:13;;;;;;;0.88;0.10;;;18.40;61.40;20.60;94200.00;;;;10523207;28;45210;-62
2022/06/28 08:31:34;;;;;;;0.30;0.10;;;18.40;61.40;20.60;94164.00;;;;10523834;28;45279;-63
2022/06/28 08:36:56;;;;;;;0.22;0.10;;;18.40;61.30;20.60;94194.00;;;;10523324;28;45146;-62
2022/06/28 08:42:22;;;;;;;0.30;0.15;;;18.40;61.40;20.60;94203.00;;;;10522895;28;45220;-63
2022/06/28 08:47:47;;;;;;;0.43;0.10;;;18.40;61.40;20.60;94190.00;;;;10522869;27;45811;-63
2022/06/28 08:53:10;;;;;;;0.57;0.20;;;18.40;61.40;20.50;94220.00;;;;10522969;28;45162;-62
2022/06/28 08:58:31;;;;;;;0.60;0.20;;;18.40;61.50;20.50;94220.00;;;;10522727;28;45293;-63
2022/06/28 09:03:54;;;;;;;0.85;0.20;;;18.30;61.50;20.50;94219.00;;;;10522359;28;45252;-64
2022/06/28 09:09:16;;;;;;;0.10;0.10;;;18.40;61.40;20.50;94205.00;;;;10522570;28;45207;-64
2022/06/28 09:14:37;;;;;;;0.10;0.10;;;18.40;61.40;20.50;94216.00;;;;10522585;28;45850;-64
2022/06/28 09:20:00;;;;;;;0.57;0.20;;;18.40;61.40;20.50;94199.00;;;;10521716;28;45435;-64
2022/06/28 09:25:31;;;;;;;0.30;0.17;;;18.40;61.40;20.50;94200.00;;;;10521958;28;45745;-64
2022/06/28 09:30:52;;;;;;;0.15;0.10;;;18.30;61.40;20.50;94190.00;;;;10521660;28;45164;-64
2022/06/28 09:36:14;;;;;;;0.30;0.17;;;18.40;61.50;20.50;94169.00;;;;10520630;28;45205;-64
2022/06/28 09:41:36;;;;;;;0.50;0.20;;;18.40;61.40;20.50;94166.00;;;;10521614;28;45380;-64
2022/06/28 09:46:58;;;;;;;0.15;0.13;;;18.30;62.20;20.50;94145.00;;;;10520632;28;45107;-64
2022/06/28 09:52:23;;;;;;;0.43;0.20;;;18.40;61.40;20.50;94138.00;;;;10520998;28;45898;-63
2022/06/28 09:57:47;;;;;;;0.30;0.20;;;18.40;61.40;20.50;94126.00;;;;10519518;27;45182;-64
2022/06/28 10:03:09;;;;;;;0.32;0.30;;;18.40;61.40;20.50;94135.00;;;;10520676;28;45045;-64
2022/06/28 10:08:30;;;;;;;0.20;0.20;;;18.30;61.40;20.50;94122.00;;;;10520217;28;45680;-63
2022/06/28 10:19:33;;;;;;;0.30;0.20;;;18.30;61.50;20.50;94138.00;;;;10519548;28;45687;-64
2022/06/28 10:24:56;;;;;;;0.20;0.10;;;18.30;61.40;20.50;94139.00;;;;10519937;28;45873;-64
2022/06/28 10:30:25;;;;;;;0.30;0.30;;;18.30;61.40;20.50;94142.00;;;;10519314;28;45171;-64
2022/06/28 10:35:55;;;;;;;0.13;0.13;;;18.40;61.40;20.50;94148.00;;;;10518813;27;45121;-64
2022/06/28 10:41:16;;;;;;;0.45;0.30;;;18.30;61.30;20.50;94133.00;;;;10519942;28;45106;-64
2022/06/28 10:46:38;;;;;;;0.45;0.20;;;18.30;61.30;20.50;94138.00;;;;10518425;28;45114;-63
2022/06/28 10:52:14;;;;;;;0.20;0.10;;;18.30;61.40;20.50;94116.00;;;;10519277;28;45168;-64
2022/06/28 10:57:38;;;;;;;0.30;0.30;;;18.30;61.40;20.50;94108.00;;;;10518783;28;45680;-64
2022/06/28 11:03:03;;;;;;;0.28;0.22;;;18.30;61.30;20.50;94123.00;;;;10519181;28;45111;-64
2022/06/28 11:08:46;;;;;;;0.22;0.20;;;18.30;61.30;20.50;94113.00;;;;10521728;27;45194;-64
2022/06/28 11:14:28;;;;;;;0.10;0.10;;;18.30;61.30;20.50;94121.00;;;;10526163;28;45822;-64
2022/06/28 11:19:53;;;;;;;0.20;0.20;;;18.30;61.40;20.50;94113.00;;;;10504050;27;45194;-65
2022/06/28 11:25:16;;;;;;;0.80;0.40;;;18.30;61.40;20.50;94113.00;;;;10525737;28;45849;-63
2022/06/28 11:30:42;;;;;;;0.20;0.20;;;18.40;61.40;20.50;94101.00;;;;10525794;28;45217;-64
2022/06/28 11:41:08;;;;;;;0.50;0.10;;;18.30;61.30;20.50;94077.00;;;;10481315;28;45149;-65
2022/06/28 11:46:30;;;;;;;0.68;0.30;;;18.30;61.30;20.50;94089.00;;;;10482643;28;45158;-66
2022/06/28 11:51:50;;;;;;;0.45;0.20;;;18.30;61.30;20.50;94097.00;;;;10483593;28;46090;-65
2022/06/28 11:57:17;;;;;;;0.40;0.30;;;18.30;61.30;20.50;94091.00;;;;10482325;28;45179;-64
2022/06/28 12:02:51;;;;;;;0.52;0.20;;;18.30;61.30;20.50;94086.00;;;;10482295;28;45679;-65
2022/06/28 12:08:11;;;;;;;0.30;0.30;;;18.30;61.30;20.50;94074.00;;;;10481710;28;45182;-65
2022/06/28 12:13:34;;;;;;;0.20;0.20;;;18.30;61.30;20.50;94073.00;;;;10482027;28;45113;-65
2022/06/28 12:18:56;;;;;;;0.47;0.20;;;18.30;61.30;20.50;94047.00;;;;10480805;28;45131;-65
2022/06/28 12:24:16;;;;;;;0.20;0.20;;;18.30;61.30;20.50;94048.00;;;;10481949;28;45214;-65
2022/06/28 12:29:38;;;;;;;0.10;0.10;;;18.30;61.30;20.50;94054.00;;;;10481447;28;45181;-66
2022/06/28 12:35:01;;;;;;;0.17;0.17;;;18.30;61.30;20.50;94046.00;;;;10481735;28;45156;-65
2022/06/28 12:40:24;;;;;;;0.32;0.30;;;18.30;61.30;20.50;94047.00;;;;10480892;28;45198;-65
2022/06/28 12:45:46;;;;;;;0.30;0.20;;;18.30;61.30;20.50;94058.00;;;;10480746;28;45154;-65
2022/06/28 12:51:06;;;;;;;0.20;0.20;;;18.30;61.30;20.50;94058.00;;;;10480806;28;45110;-65
2022/06/28 12:56:27;;;;;;;0.47;0.40;;;18.30;61.30;20.50;94053.00;;;;10480448;28;45107;-66
2022/06/28 13:01:49;;;;;;;0.25;0.20;;;18.30;61.30;20.50;94055.00;;;;10480883;28;45160;-65
2022/06/28 13:07:10;;;;;;;0.35;0.30;;;18.30;61.30;20.50;94055.00;;;;10479738;28;45184;-66
2022/06/28 13:12:30;;;;;;;0.10;0.10;;;18.30;61.30;20.50;94059.00;;;;10480537;28;45356;-65
2022/06/28 13:17:52;;;;;;;0.45;0.30;;;18.30;61.30;20.50;94067.00;;;;10479738;28;45191;-64
2022/06/28 13:23:13;;;;;;;0.20;0.20;;;18.30;61.30;20.50;94059.00;;;;10479918;28;45657;-65
2022/06/28 13:28:33;;;;;;;0.35;0.20;;;18.30;61.30;20.50;94060.00;;;;10479838;28;45659;-65
2022/06/28 13:33:55;;;;;;;0.35;0.30;;;18.30;61.30;20.50;94036.00;;;;10478829;28;45255;-64
2022/06/28 13:39:15;;;;;;;0.45;0.30;;;18.30;62.10;20.50;94036.00;;;;10478673;28;45817;-65
2022/06/28 13:44:36;;;;;;;0.30;0.30;;;18.30;61.30;20.50;94034.00;;;;10479401;28;45127;-64
2022/06/28 13:49:58;;;;;;;0.38;0.38;;;18.30;61.30;20.50;94019.00;;;;10479131;28;45206;-65
2022/06/28 13:55:18;;;;;;;0.20;0.20;;;18.30;61.30;20.50;94010.00;;;;10478599;28;45205;-65
2022/06/28 14:00:39;;;;;;;0.20;0.20;;;18.30;61.30;20.50;94003.00;;;;10478535;28;45170;-65
2022/06/28 14:06:01;;;;;;;1.38;0.40;;;18.30;61.30;20.50;94019.00;;;;10478135;28;45239;-65
2022/06/28 14:11:22;;;;;;;0.50;0.30;;;18.30;61.20;20.50;94012.00;;;;10478381;28;45264;-65
2022/06/28 14:16:43;;;;;;;0.40;0.30;;;18.30;61.30;20.50;94011.00;;;;10477684;28;45229;-65
2022/06/28 14:22:05;;;;;;;0.32;0.30;;;18.30;61.30;20.50;94009.00;;;;10478111;28;45751;-65
2022/06/28 14:27:27;;;;;;;0.40;0.40;;;18.30;61.30;20.50;94004.00;;;;10477204;28;45188;-65
2022/06/28 14:32:47;;;;;;;0.30;0.30;;;18.30;61.20;20.50;93990.00;;;;10477944;28;45168;-65
2022/06/28 14:38:09;;;;;;;0.25;0.20;;;18.30;61.20;20.50;93971.00;;;;10477254;28;45036;-65
2022/06/28 14:43:30;;;;;;;0.35;0.30;;;18.30;61.20;20.50;93975.00;;;;10477206;28;45282;-64
2022/06/28 14:48:51;;;;;;;0.32;0.30;;;18.30;61.20;20.50;93971.00;;;;10477158;28;45239;-65
2022/06/28 14:54:13;;;;;;;0.77;0.25;;;18.30;61.20;20.50;93988.00;;;;10477292;28;45785;-65
2022/06/28 14:59:33;;;;;;;0.20;0.20;;;18.30;61.20;20.50;93977.00;;;;10475998;28;45141;-65
2022/06/28 15:04:54;;;;;;;0.32;0.30;;;18.30;61.30;20.50;93964.00;;;;10477004;28;45172;-65
2022/06/28 15:10:16;;;;;;;0.30;0.30;;;18.30;61.30;20.50;93970.00;;;;10477232;28;45530;-66
2022/06/28 15:15:37;;;;;;;0.63;0.38;;;18.30;61.20;20.50;93979.00;;;;10476631;28;45120;-64
2022/06/28 15:20:57;;;;;;;0.82;0.30;;;18.30;61.30;20.50;93947.00;;;;10476620;28;45318;-65
2022/06/28 15:31:58;;;;;;;0.45;0.32;;;18.30;61.20;20.50;93938.00;;;;10476307;28;45121;-65
2022/06/28 15:37:19;;;;;;;0.50;0.50;;;18.30;61.20;20.50;93910.00;;;;10475246;28;45830;-65
2022/06/28 15:42:41;;;;;;;0.20;0.20;;;18.30;61.20;20.50;93925.00;;;;10476199;28;45215;-65
2022/06/28 15:48:02;;;;;;;0.20;0.20;;;18.30;61.20;20.50;93909.00;;;;10475276;28;45225;-64
2022/06/28 15:53:23;;;;;;;0.30;0.30;;;18.30;61.20;20.50;93893.00;;;;10476413;28;45205;-65
2022/06/28 15:58:45;;;;;;;0.52;0.40;;;18.30;61.20;20.50;93891.00;;;;10482370;28;45177;-65
2022/06/28 16:04:06;;;;;;;0.50;0.38;;;18.30;61.20;20.50;93894.00;;;;10483269;28;45116;-65
2022/06/28 16:09:29;;;;;;;0.40;0.30;;;18.30;61.20;20.50;93895.00;;;;10481905;28;45688;-66
2022/06/28 16:14:51;;;;;;;0.90;0.50;;;18.30;61.20;20.50;93877.00;;;;10482106;28;45778;-66
2022/06/28 16:20:13;;;;;;;0.40;0.40;;;18.30;61.20;20.50;93861.00;;;;10481491;28;45696;-66
2022/06/28 16:25:36;;;;;;;0.52;0.40;;;18.30;61.20;20.50;93864.00;;;;10481600;28;45223;-65
2022/06/28 16:30:58;;;;;;;0.32;0.32;;;18.30;61.20;20.50;93867.00;;;;10481751;28;45251;-64
2022/06/28 16:36:19;;;;;;;0.98;0.60;;;18.30;61.20;20.50;93875.00;;;;10480655;28;45878;-66
2022/06/28 16:41:40;;;;;;;0.38;0.38;;;18.30;61.20;20.50;93853.00;;;;10481245;28;45803;-65
2022/06/28 16:47:01;;;;;;;0.73;0.52;;;18.30;61.30;20.50;93864.00;;;;10480607;28;45758;-65
2022/06/28 16:52:22;;;;;;;0.30;0.30;;;18.30;61.20;20.50;93864.00;;;;10480966;28;45785;-65
2022/06/28 16:57:43;;;;;;;0.38;0.30;;;18.30;61.20;20.50;93860.00;;;;10480398;28;45209;-65
2022/06/28 17:03:05;;;;;;;0.32;0.30;;;18.30;61.20;20.50;93859.00;;;;10480607;28;45748;-66
2022/06/28 17:08:26;;;;;;;0.55;0.40;;;18.30;61.20;20.50;93849.00;;;;10479683;28;45885;-65
2022/06/28 17:13:46;;;;;;;0.63;0.30;;;18.30;61.30;20.50;93852.00;;;;10480437;28;45299;-66
2022/06/28 17:19:08;;;;;;;0.40;0.40;;;18.30;61.30;20.50;93863.00;;;;10479999;28;45052;-65
2022/06/28 17:24:29;;;;;;;0.40;0.40;;;18.30;61.30;20.50;93859.00;;;;10479969;28;45193;-63
2022/06/28 17:29:49;;;;;;;0.50;0.40;;;18.30;61.30;20.50;93847.00;;;;10479460;28;45188;-65
2022/06/28 17:35:11;;;;;;;0.40;0.35;;;18.30;61.40;20.50;93850.00;;;;10479586;28;45119;-65
2022/06/28 17:40:32;;;;;;;0.40;0.40;;;18.30;61.30;20.50;93840.00;;;;10479356;28;45862;-63
2022/06/28 17:45:53;;;;;;;0.55;0.40;;;18.30;61.30;20.50;93841.00;;;;10478610;28;45239;-63
2022/06/28 17:51:15;;;;;;;0.38;0.38;;;18.30;61.30;20.50;93842.00;;;;10479196;28;45235;-63
2022/06/28 17:56:36;;;;;;;0.55;0.40;;;18.30;61.40;20.50;93843.00;;;;10478109;28;45163;-62
2022/06/28 18:01:57;;;;;;;0.32;0.32;;;18.30;61.40;20.50;93839.00;;;;10478799;28;45211;-62
2022/06/28 18:07:19;;;;;;;0.43;0.40;;;18.30;61.40;20.50;93846.00;;;;10478302;28;45127;-62
2022/06/28 18:12:39;;;;;;;1.48;0.40;;;18.30;61.40;20.50;93825.00;;;;10478506;28;45207;-62
2022/06/28 18:18:00;;;;;;;0.60;0.40;;;18.30;61.40;20.50;93840.00;;;;10476702;28;45264;-62
2022/06/28 18:23:22;;;;;;;0.82;0.40;;;18.30;61.40;20.50;93839.00;;;;10478217;28;45195;-66
2022/06/28 18:28:42;;;;;;;0.43;0.40;;;18.30;61.40;20.50;93831.00;;;;10477440;28;45276;-62
2022/06/28 18:34:03;;;;;;;0.57;0.35;;;18.30;61.50;20.50;93838.00;;;;10477609;28;45176;-63
2022/06/28 18:39:26;;;;;;;0.40;0.40;;;18.30;61.40;20.50;93832.00;;;;10476778;28;45167;-62
2022/06/28 18:44:46;;;;;;;0.43;0.40;;;18.30;61.40;20.50;93840.00;;;;10477335;28;45178;-62
2022/06/28 18:50:08;;;;;;;0.65;0.50;;;18.30;61.50;20.50;93850.00;;;;10476839;28;45173;-62
2022/06/28 18:55:30;;;;;;;0.40;0.40;;;18.30;61.50;20.50;93844.00;;;;10477042;28;45197;-62
2022/06/28 19:00:51;;;;;;;0.55;0.50;;;18.30;61.50;20.50;93841.00;;;;10476428;28;45105;-63
2022/06/28 19:06:12;;;;;;;0.40;0.40;;;18.30;61.50;20.50;93844.00;;;;10476390;28;45862;-62
2022/06/28 19:11:33;;;;;;;0.63;0.50;;;18.30;61.50;20.50;93846.00;;;;10476886;28;45701;-65
2022/06/28 19:16:55;;;;;;;0.52;0.50;;;18.30;61.60;20.50;93863.00;;;;10475953;28;45777;-65
2022/06/28 19:22:15;;;;;;;0.73;0.50;;;18.30;61.60;20.50;93860.00;;;;10477051;28;45365;-62
2022/06/28 19:27:37;;;;;;;0.60;0.60;;;18.30;61.60;20.50;93876.00;;;;10475739;28;45159;-63
2022/06/28 19:32:58;;;;;;;0.40;0.38;;;18.30;61.50;20.50;93873.00;;;;10483490;28;45203;-62
2022/06/28 19:38:19;;;;;;;1.88;0.60;;;18.30;61.50;20.50;93883.00;;;;10482508;28;45672;-62
2022/06/28 19:43:41;;;;;;;0.40;0.40;;;18.30;61.50;20.50;93871.00;;;;10482903;28;45227;-63
2022/06/28 19:49:01;;;;;;;0.60;0.47;;;18.30;61.50;20.40;93888.00;;;;10482606;28;45261;-64
2022/06/28 19:54:22;;;;;;;0.50;0.50;;;18.30;61.50;20.50;93899.00;;;;10482874;28;45326;-62
2022/06/28 19:59:44;;;;;;;0.60;0.45;;;18.30;61.50;20.50;93887.00;;;;10482277;28;45199;-63
2022/06/28 20:05:07;;;;;;;0.63;0.40;;;18.30;61.60;20.50;93893.00;;;;10482185;28;45740;-62
2022/06/28 20:10:28;;;;;;;0.55;0.50;;;18.30;61.70;20.50;93897.00;;;;10482669;28;45977;-62
2022/06/28 20:15:50;;;;;;;0.40;0.40;;;18.30;61.60;20.40;93890.00;;;;10481963;28;45211;-62
2022/06/28 20:21:11;;;;;;;0.77;0.50;;;18.30;61.60;20.50;93896.00;;;;10482124;28;45105;-62
2022/06/28 20:26:34;;;;;;;0.60;0.50;;;18.30;61.60;20.50;93897.00;;;;10481475;28;45159;-62
2022/06/28 20:31:56;;;;;;;0.55;0.40;;;18.30;61.60;20.40;93909.00;;;;10481830;28;45399;-62
2022/06/28 20:37:17;;;;;;;0.50;0.50;;;18.30;61.70;20.50;93908.00;;;;10480788;28;45813;-65
2022/06/28 20:42:37;;;;;;;0.60;0.40;;;18.30;61.70;20.40;93910.00;;;;10480658;28;45158;-63
2022/06/28 20:47:59;;;;;;;1.55;0.40;;;18.30;61.70;20.40;93902.00;;;;10480535;28;45205;-62
2022/06/28 20:53:19;;;;;;;0.60;0.40;;;18.30;61.70;20.40;93915.00;;;;10480861;28;45836;-66
2022/06/28 20:58:40;;;;;;;0.50;0.50;;;18.30;61.70;20.40;93901.00;;;;10480243;28;45243;-64
2022/06/28 21:04:02;;;;;;;1.00;0.60;;;18.30;61.70;20.50;93905.00;;;;10480593;28;45277;-63
2022/06/28 21:09:23;;;;;;;0.65;0.40;;;18.30;61.80;20.40;93904.00;;;;10480060;28;45873;-65
2022/06/28 21:14:44;;;;;;;1.65;0.50;;;18.30;61.80;20.40;93891.00;;;;10480226;28;45199;-62
2022/06/28 21:20:07;;;;;;;0.40;0.40;;;18.30;61.80;20.40;93910.00;;;;10479291;28;45902;-62
2022/06/28 21:25:28;;;;;;;0.82;0.43;;;18.30;61.80;20.40;93910.00;;;;10479689;28;45253;-63
2022/06/28 21:30:48;;;;;;;0.60;0.40;;;18.30;61.80;20.40;93907.00;;;;10479680;28;45206;-62
2022/06/28 21:36:12;;;;;;;0.40;0.40;;;18.30;61.80;20.40;93909.00;;;;10479187;28;45128;-63
2022/06/28 21:41:35;;;;;;;1.15;0.50;;;18.30;61.90;20.50;93919.00;;;;10479092;28;45111;-63
2022/06/28 21:46:56;;;;;;;0.98;0.60;;;18.30;61.90;20.40;93921.00;;;;10478741;28;45197;-63
2022/06/28 21:52:18;;;;;;;0.60;0.50;;;18.30;61.90;20.50;93919.00;;;;10478101;28;45759;-62
2022/06/28 21:57:38;;;;;;;0.90;0.40;;;18.30;61.90;20.40;93914.00;;;;10478252;28;45775;-62
2022/06/28 22:03:00;;;;;;;0.85;0.32;;;18.20;61.70;20.40;93910.00;;;;10478662;28;45758;-62
2022/06/28 22:08:23;;;;;;;0.50;0.50;;;18.30;61.90;20.40;93903.00;;;;10478081;28;45786;-64
2022/06/28 22:13:43;;;;;;;0.40;0.40;;;18.30;61.90;20.40;93911.00;;;;10478104;28;45048;-62
2022/06/28 22:19:05;;;;;;;0.50;0.47;;;18.30;61.90;20.40;93915.00;;;;10478082;28;45120;-62
2022/06/28 22:24:27;;;;;;;0.60;0.50;;;18.30;61.90;20.40;93906.00;;;;10478193;28;45230;-63
2022/06/28 22:29:49;;;;;;;0.75;0.50;;;18.30;61.90;20.40;93910.00;;;;10477596;28;45176;-62
2022/06/28 22:35:12;;;;;;;0.88;0.50;;;18.30;61.90;20.40;93902.00;;;;10477999;28;45215;-62
2022/06/28 22:40:34;;;;;;;0.40;0.40;;;18.30;61.90;20.40;93898.00;;;;10476979;28;45637;-62
2022/06/28 22:45:54;;;;;;;0.80;0.50;;;18.30;61.90;20.40;93892.00;;;;10477245;28;45242;-62
2022/06/28 22:51:15;;;;;;;0.88;0.50;;;18.20;61.90;20.40;93876.00;;;;10477609;28;45241;-62
2022/06/28 22:56:37;;;;;;;0.93;0.60;;;18.30;61.90;20.40;93881.00;;;;10476378;28;45118;-64
2022/06/28 23:01:58;;;;;;;0.60;0.40;;;18.30;62.00;20.40;93894.00;;;;10476800;28;45182;-65
2022/06/28 23:07:18;;;;;;;0.47;0.40;;;18.30;62.00;20.40;93883.00;;;;10484142;28;45238;-64
2022/06/28 23:12:40;;;;;;;0.73;0.50;;;18.30;62.00;20.40;93890.00;;;;10484201;28;45886;-63
2022/06/28 23:18:01;;;;;;;0.40;0.40;;;18.30;61.90;20.40;93885.00;;;;10483295;28;45478;-65
2022/06/28 23:23:22;;;;;;;0.50;0.50;;;18.30;62.00;20.40;93877.00;;;;10484186;28;45248;-63
2022/06/28 23:28:44;;;;;;;0.50;0.50;;;18.20;61.90;20.40;93873.00;;;;10483204;28;45525;-62
2022/06/28 23:34:05;;;;;;;0.68;0.50;;;18.30;62.00;20.40;93878.00;;;;10483848;28;45165;-63
2022/06/28 23:39:25;;;;;;;0.50;0.50;;;18.30;62.00;20.40;93874.00;;;;10482971;28;45251;-64
2022/06/28 23:44:47;;;;;;;0.30;0.30;;;18.30;62.00;20.40;93864.00;;;;10483158;28;45226;-64
2022/06/28 23:50:08;;;;;;;0.63;0.40;;;18.30;62.00;20.40;93871.00;;;;10482519;28;45672;-63
2022/06/28 23:55:29;;;;;;;0.60;0.40;;;18.30;62.00;20.40;93872.00;;;;10482694;28;45200;-64
